Time;durP1;ratioP1;P1;durP2;ratioP2;P2;SDS_P1;SDS_P2;PMS_P1;PMS_P2;Temp;Humidity;BMP_temperature;BMP_pressure;BME280_temperature;BME280_humidity;BME280_pressure;Samples;Min_cycle;Max_cycle;Signal;HPM_P1;HPM_P2
2021/06/13 00:01:38;;;;;;;6.38;5.93;;;22.70;54.80;;;;;;5007785;28;20180;-91
2021/06/13 00:04:04;;;;;;;8.52;6.20;;;22.70;54.20;;;;;;5007500;28;20211;-91
2021/06/13 00:06:30;;;;;;;7.57;6.90;;;22.60;55.50;;;;;;5024014;28;20181;-91
2021/06/13 00:08:56;;;;;;;7.13;6.40;;;22.60;55.80;;;;;;5037679;28;20181;-91
2021/06/13 00:11:23;;;;;;;7.03;6.50;;;22.50;55.40;;;;;;5023668;28;20189;-91
2021/06/13 00:13:49;;;;;;;10.90;6.50;;;22.40;54.90;;;;;;5004167;28;20303;-91
2021/06/13 00:16:16;;;;;;;6.68;6.07;;;22.40;55.40;;;;;;5020844;28;20185;-91
2021/06/13 00:18:42;;;;;;;7.18;6.47;;;22.50;55.90;;;;;;5005297;28;20196;-91
2021/06/13 00:21:08;;;;;;;6.82;6.22;;;22.50;56.20;;;;;;5039434;28;20216;-91
2021/06/13 00:23:33;;;;;;;7.13;6.47;;;22.60;56.80;;;;;;5042515;28;20272;-91
2021/06/13 00:25:59;;;;;;;6.78;6.13;;;22.70;56.20;;;;;;5023636;28;20256;-91
2021/06/13 00:28:25;;;;;;;6.68;6.00;;;22.70;56.30;;;;;;5021640;28;20193;-91
2021/06/13 00:30:50;;;;;;;6.22;5.43;;;22.70;55.70;;;;;;5037392;28;20723;-90
2021/06/13 00:33:16;;;;;;;5.68;5.20;;;22.80;56.10;;;;;;5038141;28;20217;-90
2021/06/13 00:35:42;;;;;;;7.38;6.80;;;22.80;55.90;;;;;;5038657;28;20657;-90
2021/06/13 00:38:07;;;;;;;7.35;6.80;;;22.80;55.20;;;;;;5020740;28;20590;-91
2021/06/13 00:40:34;;;;;;;8.80;8.00;;;22.80;56.30;;;;;;5020627;28;20707;-91
2021/06/13 00:43:01;;;;;;;10.75;7.65;;;22.70;57.30;;;;;;5020438;28;20228;-91
2021/06/13 00:45:27;;;;;;;8.00;7.22;;;22.50;58.00;;;;;;5020878;28;20177;-91
2021/06/13 00:47:54;;;;;;;7.15;6.53;;;22.50;58.60;;;;;;5038136;28;20177;-91
2021/06/13 00:50:29;;;;;;;12.30;6.60;;;22.20;58.60;;;;;;5038136;28;20180;-91
2021/06/13 00:52:55;;;;;;;6.82;6.32;;;22.20;56.90;;;;;;5038230;28;20197;-91
2021/06/13 00:55:21;;;;;;;7.35;6.70;;;22.00;59.80;;;;;;5038211;28;20181;-91
2021/06/13 00:57:47;;;;;;;7.82;7.03;;;22.10;60.70;;;;;;5037809;28;20189;-91
2021/06/13 01:00:13;;;;;;;7.82;7.13;;;22.10;60.30;;;;;;5019973;28;20185;-90
2021/06/13 01:02:39;;;;;;;7.97;7.22;;;22.10;59.70;;;;;;5018670;28;20200;-91
2021/06/13 01:05:06;;;;;;;7.95;7.32;;;22.10;60.50;;;;;;5038232;28;20181;-90
2021/06/13 01:08:05;;;;;;;6.78;6.18;;;22.10;60.70;;;;;;5038339;28;20192;-91
2021/06/13 01:10:53;;;;;;;7.15;6.55;;;22.00;60.50;;;;;;5020618;28;20196;-92
2021/06/13 01:13:28;;;;;;;6.63;6.07;;;22.00;60.90;;;;;;5018726;28;20281;-91
2021/06/13 01:16:38;;;;;;;7.95;7.22;;;22.00;60.90;;;;;;5018438;28;20188;-90
2021/06/13 01:19:20;;;;;;;6.38;5.78;;;22.00;60.80;;;;;;5014123;28;20546;-92
2021/06/13 01:21:56;;;;;;;7.47;6.78;;;22.00;61.30;;;;;;5026103;28;20181;-91
2021/06/13 01:24:51;;;;;;;6.93;6.07;;;21.90;61.60;;;;;;5019999;28;20219;-91
2021/06/13 01:27:54;;;;;;;6.18;5.60;;;21.80;61.60;;;;;;5008807;28;20220;-91
2021/06/13 01:30:23;;;;;;;6.30;5.65;;;21.90;62.00;;;;;;5017815;28;20692;-91
2021/06/13 01:32:49;;;;;;;6.18;5.63;;;21.70;62.40;;;;;;5033667;28;20201;-91
2021/06/13 01:35:21;;;;;;;7.18;5.80;;;21.70;63.30;;;;;;4997086;28;20188;-91
2021/06/13 01:37:51;;;;;;;6.72;6.03;;;21.70;62.60;;;;;;5039968;28;20161;-91
2021/06/13 01:40:20;;;;;;;6.53;5.93;;;21.60;62.30;;;;;;5021595;28;20188;-90
2021/06/13 01:42:49;;;;;;;6.63;6.03;;;21.70;62.20;;;;;;5021165;28;20212;-90
2021/06/13 01:45:18;;;;;;;6.18;5.63;;;21.60;62.10;;;;;;5021093;28;20180;-91
2021/06/13 01:47:44;;;;;;;7.15;6.55;;;21.60;62.60;;;;;;5020973;28;20603;-91
2021/06/13 01:50:11;;;;;;;7.28;6.20;;;21.60;62.60;;;;;;5022409;28;20204;-91
2021/06/13 01:52:38;;;;;;;6.40;5.80;;;21.60;61.70;;;;;;5022527;28;20205;-90
2021/06/13 01:55:08;;;;;;;6.55;5.93;;;21.60;61.20;;;;;;5041259;28;20179;-90
2021/06/13 01:57:35;;;;;;;6.60;5.97;;;21.60;61.60;;;;;;5022579;28;20184;-89
2021/06/13 02:00:04;;;;;;;6.90;6.20;;;21.60;62.10;;;;;;5006731;28;20224;-90
2021/06/13 02:02:30;;;;;;;7.03;6.32;;;21.60;61.30;;;;;;5023338;28;20212;-90
2021/06/13 02:04:57;;;;;;;6.20;5.72;;;21.50;61.60;;;;;;4990574;28;20193;-91
2021/06/13 02:07:24;;;;;;;6.07;5.50;;;21.60;61.80;;;;;;5005715;28;20293;-90
2021/06/13 02:09:50;;;;;;;7.18;6.55;;;21.50;60.50;;;;;;5022376;28;20188;-91
2021/06/13 02:12:16;;;;;;;7.57;6.88;;;21.20;61.80;;;;;;5021681;28;20193;-91
2021/06/13 02:14:45;;;;;;;11.70;10.73;;;21.20;62.10;;;;;;5005223;28;20247;-91
2021/06/13 02:17:12;;;;;;;10.70;9.60;;;21.20;60.90;;;;;;5022225;28;20195;-91
2021/06/13 02:19:42;;;;;;;9.80;8.90;;;21.10;62.30;;;;;;5022089;28;20192;-91
2021/06/13 02:22:10;;;;;;;10.52;9.63;;;21.20;62.40;;;;;;5039152;28;20204;-91
2021/06/13 02:24:37;;;;;;;9.75;8.95;;;21.20;62.40;;;;;;5038140;28;20207;-91
2021/06/13 02:27:04;;;;;;;9.35;8.50;;;21.10;62.80;;;;;;5021595;28;20696;-91
2021/06/13 02:29:32;;;;;;;9.15;7.88;;;21.10;62.90;;;;;;5039676;28;20183;-91
2021/06/13 02:31:59;;;;;;;8.32;7.53;;;20.90;62.40;;;;;;5022177;28;20204;-91
2021/06/13 02:34:27;;;;;;;7.32;6.40;;;20.90;63.10;;;;;;5023501;28;20184;-91
2021/06/13 02:36:55;;;;;;;6.78;5.60;;;20.90;61.60;;;;;;5056073;28;20171;-90
2021/06/13 02:39:22;;;;;;;7.47;5.93;;;20.80;62.00;;;;;;5054701;28;20158;-93
2021/06/13 02:41:48;;;;;;;6.72;6.10;;;20.60;62.10;;;;;;5033614;28;20226;-90
2021/06/13 02:44:14;;;;;;;7.30;5.70;;;20.50;63.10;;;;;;5032583;28;20220;-91
2021/06/13 02:46:40;;;;;;;5.90;5.35;;;20.40;62.70;;;;;;5034012;28;20239;-91
2021/06/13 02:49:07;;;;;;;6.63;6.03;;;20.50;63.30;;;;;;5050305;28;20182;-91
2021/06/13 02:51:42;;;;;;;5.85;5.38;;;20.50;63.20;;;;;;5043694;28;20182;-92
2021/06/13 02:54:09;;;;;;;6.78;6.13;;;20.60;62.60;;;;;;5039397;28;20183;-91
2021/06/13 02:56:57;;;;;;;7.65;5.80;;;20.70;63.50;;;;;;5039677;28;20197;-92
2021/06/13 02:59:41;;;;;;;6.57;5.82;;;20.60;62.60;;;;;;5020710;28;20199;-91
2021/06/13 03:02:11;;;;;;;7.00;6.40;;;20.60;62.40;;;;;;5038421;28;20203;-91
2021/06/13 03:04:40;;;;;;;6.55;5.95;;;20.60;63.00;;;;;;5004404;28;20219;-92
2021/06/13 03:07:06;;;;;;;7.63;6.20;;;20.50;63.30;;;;;;5038596;28;20173;-91
2021/06/13 03:09:34;;;;;;;5.90;5.40;;;20.50;62.80;;;;;;5003954;28;20186;-92
2021/06/13 03:12:00;;;;;;;6.70;6.03;;;20.40;62.20;;;;;;5038110;28;20718;-91
2021/06/13 03:14:29;;;;;;;7.45;6.25;;;20.30;64.00;;;;;;5039185;28;20183;-91
2021/06/13 03:16:56;;;;;;;6.93;6.40;;;20.30;64.00;;;;;;5020972;28;20188;-91
2021/06/13 03:19:22;;;;;;;6.70;6.10;;;20.30;62.90;;;;;;5037946;28;20196;-92
2021/06/13 03:21:49;;;;;;;6.28;5.78;;;20.20;63.90;;;;;;5019878;28;20193;-91
2021/06/13 03:24:16;;;;;;;6.93;6.28;;;20.40;64.20;;;;;;5019045;28;20301;-91
2021/06/13 03:26:42;;;;;;;7.68;5.95;;;20.40;64.00;;;;;;5019695;28;20206;-91
2021/06/13 03:29:09;;;;;;;6.38;5.78;;;20.40;62.80;;;;;;5020503;28;20594;-90
2021/06/13 03:31:36;;;;;;;7.22;6.25;;;20.40;62.80;;;;;;5019509;28;20181;-91
2021/06/13 03:34:02;;;;;;;6.30;5.70;;;20.40;62.90;;;;;;5001879;28;20201;-93
2021/06/13 03:36:30;;;;;;;5.95;5.45;;;20.50;63.20;;;;;;5003236;28;20193;-91
2021/06/13 03:38:57;;;;;;;6.88;5.05;;;20.40;62.30;;;;;;5020078;28;20181;-91
2021/06/13 03:41:24;;;;;;;6.10;5.55;;;20.40;63.10;;;;;;5019576;28;20192;-91
2021/06/13 03:43:52;;;;;;;5.30;4.80;;;20.40;60.00;;;;;;5019572;28;20217;-92
2021/06/13 03:46:19;;;;;;;5.97;5.38;;;20.50;61.80;;;;;;5003649;28;20603;-91
2021/06/13 03:48:47;;;;;;;6.00;5.28;;;20.40;60.30;;;;;;5003870;28;20189;-91
2021/06/13 03:51:13;;;;;;;5.85;5.03;;;20.20;62.00;;;;;;5037663;28;20178;-91
2021/06/13 03:53:54;;;;;;;5.47;4.82;;;20.30;62.70;;;;;;5037245;28;20212;-91
2021/06/13 03:56:23;;;;;;;5.72;5.15;;;20.30;61.40;;;;;;5019807;28;20249;-91
2021/06/13 03:58:50;;;;;;;6.35;5.40;;;20.20;62.10;;;;;;5020950;28;20178;-91
2021/06/13 04:01:18;;;;;;;5.55;5.03;;;20.00;61.60;;;;;;5037574;28;20237;-91
2021/06/13 04:03:52;;;;;;;6.10;5.50;;;19.70;62.00;;;;;;5019259;28;20204;-90
2021/06/13 04:06:25;;;;;;;7.90;4.88;;;19.40;63.80;;;;;;5017725;28;20703;-91
2021/06/13 04:08:52;;;;;;;5.25;4.75;;;19.10;64.50;;;;;;4999131;28;20174;-90
2021/06/13 04:11:19;;;;;;;6.72;4.70;;;18.90;65.50;;;;;;5000038;28;20271;-90
2021/06/13 04:13:47;;;;;;;5.90;5.40;;;18.60;67.30;;;;;;5017270;28;20209;-90
2021/06/13 04:16:14;;;;;;;5.60;4.70;;;18.40;68.00;;;;;;5027840;28;20190;-91
2021/06/13 04:18:42;;;;;;;7.65;5.10;;;18.50;68.60;;;;;;5018932;28;20189;-90
2021/06/13 04:21:12;;;;;;;5.85;5.13;;;18.60;68.20;;;;;;5036731;28;20196;-90
2021/06/13 04:23:43;;;;;;;5.28;4.78;;;18.80;67.90;;;;;;5037312;28;20222;-90
2021/06/13 04:26:16;;;;;;;6.07;4.90;;;18.80;66.90;;;;;;5036569;28;20173;-91
2021/06/13 04:28:43;;;;;;;5.32;4.82;;;18.80;67.60;;;;;;5037219;28;20223;-90
2021/06/13 04:31:11;;;;;;;8.02;4.80;;;18.70;67.80;;;;;;5018676;28;20187;-90
2021/06/13 04:33:43;;;;;;;5.50;5.00;;;18.60;66.90;;;;;;5018881;28;20222;-90
2021/06/13 04:36:09;;;;;;;5.43;4.90;;;18.60;66.40;;;;;;5037402;28;20182;-90
2021/06/13 04:38:36;;;;;;;5.38;4.70;;;18.50;66.70;;;;;;5019169;28;20191;-91
2021/06/13 04:41:03;;;;;;;6.50;4.90;;;18.70;66.70;;;;;;5037138;28;20672;-90
2021/06/13 04:43:29;;;;;;;5.97;5.20;;;19.00;65.90;;;;;;5038519;28;20216;-91
2021/06/13 04:45:54;;;;;;;5.53;4.82;;;19.20;64.70;;;;;;5023710;28;20177;-90
2021/06/13 04:48:20;;;;;;;5.47;4.80;;;19.40;65.00;;;;;;5040031;28;20205;-90
2021/06/13 04:50:46;;;;;;;6.38;5.57;;;19.60;64.20;;;;;;5039931;28;20588;-91
2021/06/13 04:53:52;;;;;;;5.57;5.03;;;19.40;62.20;;;;;;5022155;28;20291;-91
2021/06/13 04:56:23;;;;;;;7.82;6.93;;;19.20;64.70;;;;;;5022465;28;20626;-91
2021/06/13 04:58:49;;;;;;;6.47;5.35;;;19.00;64.30;;;;;;5040372;28;20184;-91
2021/06/13 05:01:15;;;;;;;6.22;4.75;;;18.90;63.20;;;;;;5004979;28;20258;-91
2021/06/13 05:03:43;;;;;;;6.03;4.63;;;18.90;62.70;;;;;;5040072;28;20620;-91
2021/06/13 05:06:09;;;;;;;7.80;5.27;;;18.80;63.00;;;;;;5021419;28;20251;-91
2021/06/13 05:08:35;;;;;;;6.78;5.13;;;18.70;67.00;;;;;;5021990;28;20192;-91
2021/06/13 05:11:01;;;;;;;6.18;5.03;;;18.80;65.50;;;;;;5039284;28;20172;-90
2021/06/13 05:13:26;;;;;;;6.75;5.13;;;18.90;63.80;;;;;;5021891;28;20207;-91
2021/06/13 05:15:52;;;;;;;5.57;4.80;;;19.00;64.40;;;;;;4988713;28;20298;-90
2021/06/13 05:18:18;;;;;;;6.53;5.13;;;19.10;64.80;;;;;;5021854;28;20660;-90
2021/06/13 05:20:44;;;;;;;6.97;5.13;;;19.20;62.10;;;;;;5022228;28;20184;-90
2021/06/13 05:23:10;;;;;;;6.85;5.00;;;19.10;62.40;;;;;;4992945;28;20277;-90
2021/06/13 05:25:37;;;;;;;5.70;5.10;;;18.90;62.60;;;;;;5003044;28;20257;-90
2021/06/13 05:28:05;;;;;;;6.70;5.13;;;18.80;62.70;;;;;;5017897;28;20235;-90
2021/06/13 05:30:33;;;;;;;6.07;4.90;;;18.70;63.30;;;;;;5006763;28;20191;-90
2021/06/13 05:32:59;;;;;;;6.15;4.93;;;18.80;62.80;;;;;;5039915;28;20204;-90
2021/06/13 05:35:26;;;;;;;5.80;4.97;;;18.70;63.60;;;;;;5039505;28;20191;-90
2021/06/13 05:37:52;;;;;;;5.93;4.90;;;18.60;64.50;;;;;;5022016;28;20190;-90
2021/06/13 05:40:20;;;;;;;8.80;5.03;;;18.70;64.10;;;;;;5021818;28;20195;-90
2021/06/13 05:42:45;;;;;;;7.00;5.00;;;18.80;64.80;;;;;;5040005;28;20261;-90
2021/06/13 05:45:13;;;;;;;7.90;4.97;;;18.80;64.70;;;;;;5006451;28;20776;-90
2021/06/13 05:47:39;;;;;;;5.43;4.93;;;19.00;63.10;;;;;;5022508;28;20179;-90
2021/06/13 05:50:07;;;;;;;6.50;4.43;;;19.10;62.70;;;;;;5022296;28;20181;-90
2021/06/13 05:52:33;;;;;;;9.32;5.68;;;19.20;61.40;;;;;;5022859;28;20211;-89
2021/06/13 05:54:59;;;;;;;7.45;4.93;;;19.20;60.70;;;;;;4991861;28;20187;-88
2021/06/13 05:57:34;;;;;;;5.82;5.30;;;19.10;62.30;;;;;;5037433;28;20196;-88
2021/06/13 06:00:11;;;;;;;6.65;5.60;;;19.00;61.00;;;;;;5040354;28;20176;-87
2021/06/13 06:02:37;;;;;;;8.30;5.35;;;19.00;60.50;;;;;;5040145;28;20201;-87
2021/06/13 06:05:04;;;;;;;6.28;5.35;;;19.10;61.00;;;;;;5039785;28;20226;-87
2021/06/13 06:07:30;;;;;;;7.65;5.35;;;19.10;60.70;;;;;;5040560;28;20240;-87
2021/06/13 06:09:56;;;;;;;6.10;5.23;;;19.10;60.60;;;;;;5021369;28;20184;-87
2021/06/13 06:12:21;;;;;;;8.68;5.45;;;18.90;61.20;;;;;;5041297;28;20236;-86
2021/06/13 06:14:47;;;;;;;6.45;5.10;;;18.90;61.60;;;;;;5025250;28;20240;-90
2021/06/13 06:17:14;;;;;;;6.77;5.60;;;19.00;61.40;;;;;;4992155;28;20248;-89
2021/06/13 06:19:41;;;;;;;10.73;5.30;;;18.90;61.10;;;;;;5043718;28;20188;-89
2021/06/13 06:22:07;;;;;;;6.32;5.50;;;18.90;61.10;;;;;;5028198;28;20214;-91
2021/06/13 06:24:33;;;;;;;6.37;5.50;;;18.90;61.00;;;;;;5029694;28;20279;-90
2021/06/13 06:26:59;;;;;;;7.10;5.57;;;18.80;61.60;;;;;;5026187;28;20207;-92
2021/06/13 06:29:25;;;;;;;6.93;5.00;;;18.70;61.80;;;;;;5024742;28;20232;-91
2021/06/13 06:31:51;;;;;;;7.07;5.60;;;18.80;62.50;;;;;;5016200;28;20209;-89
2021/06/13 06:34:17;;;;;;;7.20;5.33;;;19.00;61.70;;;;;;5027613;28;20250;-91
2021/06/13 06:36:44;;;;;;;10.27;5.67;;;19.00;61.40;;;;;;5024702;28;20193;-90
2021/06/13 06:39:11;;;;;;;7.90;5.17;;;19.10;61.30;;;;;;4992672;28;20187;-89
2021/06/13 06:41:37;;;;;;;7.97;5.60;;;19.10;61.10;;;;;;5009974;28;20211;-90
2021/06/13 06:44:07;;;;;;;7.80;5.50;;;19.20;60.80;;;;;;5027033;28;20291;-91
2021/06/13 06:46:34;;;;;;;7.23;5.17;;;18.90;61.00;;;;;;5023131;28;20186;-89
2021/06/13 06:49:01;;;;;;;5.30;4.80;;;19.00;61.10;;;;;;4992430;28;20210;-89
2021/06/13 06:51:27;;;;;;;7.60;5.63;;;19.10;61.10;;;;;;5024252;28;20184;-89
2021/06/13 06:53:57;;;;;;;8.43;5.53;;;19.10;60.80;;;;;;5011053;28;20211;-91
2021/06/13 06:56:27;;;;;;;7.10;5.40;;;19.00;61.00;;;;;;5023285;28;20286;-89
2021/06/13 06:58:54;;;;;;;7.80;5.13;;;19.00;61.80;;;;;;5025771;28;20220;-90
2021/06/13 07:01:20;;;;;;;7.13;5.00;;;19.10;61.90;;;;;;5010418;28;20254;-90
2021/06/13 07:03:46;;;;;;;9.47;5.43;;;19.10;61.40;;;;;;5045624;28;20685;-89
2021/06/13 07:06:12;;;;;;;7.50;5.17;;;19.10;61.50;;;;;;5012321;28;20183;-91
2021/06/13 07:08:38;;;;;;;7.00;5.43;;;19.00;60.70;;;;;;5026733;28;20204;-90
2021/06/13 07:11:04;;;;;;;6.73;5.87;;;19.10;60.60;;;;;;5043574;28;20247;-89
2021/06/13 07:13:30;;;;;;;7.60;5.53;;;19.10;60.90;;;;;;5028227;28;20257;-90
2021/06/13 07:15:56;;;;;;;8.95;5.95;;;19.30;61.10;;;;;;5030022;28;20187;-91
2021/06/13 07:18:22;;;;;;;7.57;5.15;;;19.40;59.90;;;;;;5028957;28;20204;-89
2021/06/13 07:20:48;;;;;;;8.00;5.68;;;19.30;60.10;;;;;;5060488;28;20190;-89
2021/06/13 07:23:14;;;;;;;5.50;5.00;;;19.40;60.00;;;;;;5061371;28;20357;-90
2021/06/13 07:25:40;;;;;;;7.90;5.07;;;19.60;59.70;;;;;;5028173;28;20187;-90
2021/06/13 07:28:06;;;;;;;6.60;4.72;;;19.80;59.00;;;;;;5042124;28;20199;-91
2021/06/13 07:30:34;;;;;;;7.45;5.22;;;19.80;59.20;;;;;;5044333;28;20192;-90
2021/06/13 07:33:03;;;;;;;7.18;5.30;;;19.90;58.80;;;;;;5041079;28;20199;-90
2021/06/13 07:35:28;;;;;;;7.40;5.70;;;19.90;58.30;;;;;;5003710;28;20181;-90
2021/06/13 07:37:54;;;;;;;7.55;5.45;;;19.80;58.10;;;;;;5002962;28;20184;-90
2021/06/13 07:40:21;;;;;;;5.43;4.93;;;19.90;58.40;;;;;;5038845;28;20173;-90
2021/06/13 07:42:47;;;;;;;9.98;5.25;;;20.10;58.70;;;;;;5039429;28;20248;-89
2021/06/13 07:45:13;;;;;;;6.55;5.20;;;20.20;58.70;;;;;;5038979;28;20180;-90
2021/06/13 07:47:40;;;;;;;7.18;5.60;;;20.00;57.70;;;;;;5021449;28;20188;-90
2021/06/13 07:50:08;;;;;;;6.13;5.40;;;20.10;58.40;;;;;;5008446;28;20181;-89
2021/06/13 07:52:35;;;;;;;7.53;4.97;;;20.20;58.60;;;;;;4992355;28;20198;-89
2021/06/13 07:55:02;;;;;;;6.00;5.25;;;20.40;57.40;;;;;;5026177;28;20261;-90
2021/06/13 07:57:27;;;;;;;6.93;5.88;;;20.50;57.40;;;;;;5010092;28;20192;-88
2021/06/13 07:59:53;;;;;;;7.35;5.45;;;20.40;57.50;;;;;;4989216;28;20200;-90
2021/06/13 08:02:18;;;;;;;6.65;5.57;;;20.20;58.20;;;;;;5020237;28;20205;-90
2021/06/13 08:04:49;;;;;;;7.38;5.68;;;20.20;58.10;;;;;;5010595;28;20196;-89
2021/06/13 08:07:15;;;;;;;8.60;5.05;;;20.40;58.10;;;;;;5000839;28;20183;-92
2021/06/13 08:09:40;;;;;;;6.93;5.60;;;20.40;57.60;;;;;;5020819;28;20192;-90
2021/06/13 08:12:07;;;;;;;6.40;5.07;;;20.50;57.60;;;;;;5019413;28;20575;-89
2021/06/13 08:14:33;;;;;;;7.95;5.60;;;20.70;56.70;;;;;;5037259;28;20186;-90
2021/06/13 08:16:59;;;;;;;8.30;6.25;;;20.80;56.50;;;;;;5039719;28;20517;-90
2021/06/13 08:19:24;;;;;;;7.95;5.22;;;20.90;54.70;;;;;;5044425;28;20183;-89
2021/06/13 08:21:51;;;;;;;8.75;5.53;;;21.00;55.00;;;;;;5042358;28;20177;-89
2021/06/13 08:24:16;;;;;;;6.03;5.43;;;21.20;55.40;;;;;;5023589;28;20243;-90
2021/06/13 08:26:42;;;;;;;8.55;5.53;;;21.20;55.50;;;;;;5008612;28;20200;-91
2021/06/13 08:29:08;;;;;;;6.60;5.35;;;21.30;54.50;;;;;;5004314;28;20207;-90
2021/06/13 08:31:34;;;;;;;5.57;4.88;;;21.40;54.00;;;;;;4992866;28;20181;-92
2021/06/13 08:34:00;;;;;;;5.90;5.30;;;21.50;52.70;;;;;;5041670;28;20232;-90
2021/06/13 08:36:26;;;;;;;8.35;5.68;;;21.30;53.60;;;;;;5022310;28;20181;-90
2021/06/13 08:38:55;;;;;;;5.65;5.20;;;21.40;53.50;;;;;;5005088;28;20189;-90
2021/06/13 08:41:21;;;;;;;8.80;5.70;;;21.60;53.50;;;;;;5024094;28;20181;-89
2021/06/13 08:43:48;;;;;;;6.57;5.15;;;21.70;53.00;;;;;;5043603;28;20712;-91
2021/06/13 08:46:14;;;;;;;6.68;5.38;;;22.00;52.40;;;;;;5026849;28;20196;-91
2021/06/13 08:48:44;;;;;;;7.15;5.60;;;22.20;51.70;;;;;;5012954;28;20177;-91
2021/06/13 08:51:10;;;;;;;5.75;5.22;;;22.20;50.50;;;;;;5048114;28;20201;-91
2021/06/13 08:53:44;;;;;;;7.65;5.47;;;21.90;51.40;;;;;;5011907;28;20214;-90
2021/06/13 08:56:11;;;;;;;6.25;5.43;;;22.00;51.60;;;;;;5045365;28;20540;-91
2021/06/13 08:58:38;;;;;;;10.60;5.93;;;22.00;50.90;;;;;;5029441;28;20197;-91
2021/06/13 09:01:06;;;;;;;8.23;5.13;;;22.00;50.70;;;;;;5013398;28;20190;-91
2021/06/13 09:03:32;;;;;;;5.97;5.18;;;22.10;50.20;;;;;;5002228;28;20714;-91
2021/06/13 09:05:57;;;;;;;5.82;5.18;;;22.20;51.60;;;;;;5019219;28;20177;-91
2021/06/13 09:08:38;;;;;;;7.18;5.25;;;22.40;49.30;;;;;;4989613;28;20189;-90
2021/06/13 09:11:05;;;;;;;8.40;5.28;;;22.50;49.50;;;;;;5037877;28;20301;-91
2021/06/13 09:13:33;;;;;;;6.93;4.88;;;22.70;48.70;;;;;;5029648;28;20236;-91
2021/06/13 09:16:05;;;;;;;7.97;5.25;;;22.60;49.30;;;;;;5048326;28;20243;-91
2021/06/13 09:18:43;;;;;;;7.75;4.85;;;22.60;48.80;;;;;;5037365;28;20649;-92
2021/06/13 09:21:30;;;;;;;6.32;4.93;;;22.80;48.10;;;;;;4985281;28;20549;-90
2021/06/13 09:23:56;;;;;;;5.93;5.35;;;22.70;48.00;;;;;;5004595;28;20226;-91
2021/06/13 09:26:29;;;;;;;8.27;5.45;;;22.80;47.50;;;;;;5002897;28;20216;-91
2021/06/13 09:28:58;;;;;;;8.52;5.00;;;23.10;46.90;;;;;;5008420;28;20287;-90
2021/06/13 09:31:29;;;;;;;5.70;4.72;;;23.10;45.30;;;;;;4990572;28;20196;-92
2021/06/13 09:33:57;;;;;;;6.15;5.10;;;23.40;44.70;;;;;;5021902;28;20213;-91
2021/06/13 09:36:29;;;;;;;5.15;4.65;;;23.50;44.90;;;;;;5021997;28;20181;-91
2021/06/13 09:39:06;;;;;;;6.90;4.72;;;23.70;46.10;;;;;;5022478;28;20162;-91
2021/06/13 09:41:39;;;;;;;4.95;4.47;;;23.60;46.10;;;;;;5019225;28;20280;-92
2021/06/13 09:44:12;;;;;;;6.85;4.95;;;23.80;45.20;;;;;;4988093;28;20205;-92
2021/06/13 09:46:46;;;;;;;6.15;4.45;;;23.70;45.70;;;;;;5018459;28;20170;-91
2021/06/13 09:49:16;;;;;;;8.60;5.13;;;24.10;45.50;;;;;;4992395;28;20181;-92
2021/06/13 09:51:53;;;;;;;7.13;4.55;;;23.80;45.30;;;;;;4986897;28;20177;-91
2021/06/13 09:54:28;;;;;;;5.03;4.50;;;23.90;45.10;;;;;;5019266;28;20177;-91
2021/06/13 09:56:56;;;;;;;7.10;4.80;;;24.20;43.70;;;;;;5015424;28;20180;-92
2021/06/13 09:59:27;;;;;;;6.03;5.13;;;24.00;41.90;;;;;;4990215;28;20644;-90
2021/06/13 10:01:55;;;;;;;6.07;4.38;;;24.00;41.30;;;;;;5016264;28;20185;-91
2021/06/13 10:04:21;;;;;;;7.53;4.55;;;24.20;40.50;;;;;;4999592;28;20212;-91
2021/06/13 10:06:52;;;;;;;8.20;5.28;;;24.40;41.30;;;;;;5017088;28;20181;-91
2021/06/13 10:09:21;;;;;;;7.75;5.00;;;24.70;42.30;;;;;;5016878;28;20162;-92
2021/06/13 10:11:50;;;;;;;7.30;5.20;;;24.70;41.30;;;;;;4997770;28;20562;-91
2021/06/13 10:14:17;;;;;;;8.00;5.20;;;24.80;41.10;;;;;;5014174;28;20182;-91
2021/06/13 10:16:49;;;;;;;6.90;5.00;;;25.00;41.40;;;;;;5003594;28;20660;-91
2021/06/13 10:19:19;;;;;;;6.22;4.57;;;24.80;41.00;;;;;;5003875;28;20212;-91
2021/06/13 10:21:58;;;;;;;6.43;5.25;;;24.90;40.90;;;;;;5026561;28;20188;-91
2021/06/13 10:24:26;;;;;;;6.35;4.97;;;25.10;38.80;;;;;;4987290;28;20209;-92
2021/06/13 10:27:00;;;;;;;6.30;4.93;;;24.90;40.10;;;;;;5020293;28;20333;-91
2021/06/13 10:29:28;;;;;;;5.85;4.95;;;25.30;41.30;;;;;;4984897;28;20174;-91
2021/06/13 10:31:56;;;;;;;5.20;4.65;;;25.00;40.00;;;;;;5000972;28;20703;-91
2021/06/13 10:34:23;;;;;;;5.80;5.10;;;24.90;40.60;;;;;;4999432;28;20581;-91
2021/06/13 10:36:50;;;;;;;6.78;4.07;;;24.70;39.70;;;;;;4999239;28;20556;-91
2021/06/13 10:39:18;;;;;;;5.13;4.65;;;25.20;37.50;;;;;;5007142;28;20177;-92
2021/06/13 10:41:45;;;;;;;5.65;5.15;;;25.40;38.90;;;;;;5039732;28;20181;-91
2021/06/13 10:44:16;;;;;;;5.57;4.88;;;25.20;39.10;;;;;;5023705;28;20204;-91
2021/06/13 10:46:45;;;;;;;6.57;4.65;;;25.40;39.40;;;;;;5019511;28;20182;-91
2021/06/13 10:49:30;;;;;;;4.28;3.88;;;25.10;38.90;;;;;;5037702;28;20208;-91
2021/06/13 10:52:16;;;;;;;4.00;3.70;;;25.10;38.00;;;;;;5041432;28;20185;-91
2021/06/13 10:54:54;;;;;;;4.25;3.78;;;25.80;37.00;;;;;;5040368;28;20181;-94
2021/06/13 10:57:21;;;;;;;5.30;4.50;;;26.20;36.10;;;;;;5040998;28;20204;-90
2021/06/13 10:59:58;;;;;;;4.90;4.13;;;26.30;37.10;;;;;;5041280;28;20174;-91
2021/06/13 11:02:49;;;;;;;5.07;4.40;;;26.70;36.40;;;;;;5007873;28;20212;-92
2021/06/13 11:05:36;;;;;;;4.22;3.92;;;26.70;35.80;;;;;;5019562;28;20273;-91
2021/06/13 11:08:01;;;;;;;6.57;4.10;;;26.80;35.60;;;;;;5020359;28;20173;-92
2021/06/13 11:10:29;;;;;;;6.03;3.63;;;26.80;34.30;;;;;;5017390;28;20185;-92
2021/06/13 11:13:06;;;;;;;4.13;3.72;;;27.20;34.70;;;;;;5003930;28;20216;-92
2021/06/13 11:15:31;;;;;;;4.32;3.92;;;27.50;33.90;;;;;;5004060;28;20748;-91
2021/06/13 11:18:06;;;;;;;5.50;4.53;;;27.20;34.30;;;;;;5019466;28;20185;-91
2021/06/13 11:23:13;;;;;;;4.00;3.70;;;27.10;33.20;;;;;;5022607;28;20197;-90
2021/06/13 11:25:40;;;;;;;4.22;3.92;;;27.10;33.90;;;;;;5021987;28;20185;-91
2021/06/13 11:28:22;;;;;;;6.18;4.43;;;27.60;31.90;;;;;;5021478;28;20372;-91
2021/06/13 11:30:55;;;;;;;5.72;3.50;;;27.80;30.40;;;;;;5024478;28;20241;-89
2021/06/13 11:33:39;;;;;;;5.88;3.65;;;27.90;31.80;;;;;;5023364;28;20220;-92
2021/06/13 11:36:15;;;;;;;4.80;3.90;;;27.60;31.40;;;;;;5024850;28;20567;-91
2021/06/13 11:38:48;;;;;;;4.72;3.60;;;27.80;31.90;;;;;;5025128;28;20173;-92
2021/06/13 11:41:31;;;;;;;4.28;3.88;;;27.70;30.70;;;;;;5011675;28;20178;-90
2021/06/13 11:44:00;;;;;;;5.10;4.20;;;28.00;31.90;;;;;;5007372;28;20553;-91
2021/06/13 11:46:38;;;;;;;4.72;4.15;;;27.80;31.40;;;;;;5014270;28;20184;-90
2021/06/13 11:49:06;;;;;;;5.45;3.88;;;28.40;31.10;;;;;;5014160;28;20256;-92
2021/06/13 11:51:56;;;;;;;4.30;3.75;;;28.60;31.20;;;;;;4999617;28;20216;-92
2021/06/13 11:54:41;;;;;;;3.95;3.53;;;28.30;30.50;;;;;;5038564;28;20552;-91
2021/06/13 11:57:29;;;;;;;5.53;3.60;;;28.30;30.80;;;;;;5017027;28;20322;-92
2021/06/13 12:00:08;;;;;;;4.10;3.67;;;27.80;30.00;;;;;;4988004;28;20264;-91
2021/06/13 12:02:33;;;;;;;4.88;3.67;;;28.10;30.30;;;;;;5010113;28;20281;-91
2021/06/13 12:05:03;;;;;;;4.47;3.65;;;28.10;30.40;;;;;;5043728;28;20255;-91
2021/06/13 12:07:36;;;;;;;5.72;3.75;;;28.30;30.70;;;;;;5027496;28;20184;-92
2021/06/13 12:10:20;;;;;;;6.40;3.40;;;28.20;31.50;;;;;;5044050;28;20188;-91
2021/06/13 12:12:45;;;;;;;4.70;3.45;;;28.10;30.00;;;;;;5044727;28;20192;-91
2021/06/13 12:15:12;;;;;;;6.03;4.68;;;28.60;30.00;;;;;;5027231;28;20223;-92
2021/06/13 12:17:37;;;;;;;4.85;3.63;;;29.00;29.60;;;;;;5027268;28;20818;-92
2021/06/13 12:20:17;;;;;;;5.10;3.42;;;29.20;30.20;;;;;;5026244;28;20220;-91
2021/06/13 12:28:06;;;;;;;5.32;3.47;;;29.30;28.30;;;;;;5033685;28;20207;-91
2021/06/13 12:30:34;;;;;;;3.95;3.50;;;29.40;27.50;;;;;;5028243;28;20219;-92
2021/06/13 12:33:05;;;;;;;4.55;3.40;;;29.50;27.60;;;;;;5045469;28;20197;-92
2021/06/13 12:35:36;;;;;;;3.75;3.15;;;29.90;26.90;;;;;;5025757;28;20644;-93
2021/06/13 12:38:09;;;;;;;5.90;3.50;;;29.50;27.50;;;;;;5030108;28;20173;-93
2021/06/13 12:40:44;;;;;;;4.70;3.60;;;29.20;27.30;;;;;;5030526;28;20181;-93
2021/06/13 12:43:11;;;;;;;3.20;3.00;;;29.40;27.50;;;;;;5031147;28;20264;-94
2021/06/13 12:45:38;;;;;;;4.10;3.40;;;30.00;28.40;;;;;;5027829;28;20197;-93
2021/06/13 12:48:09;;;;;;;4.45;3.35;;;30.40;25.40;;;;;;5020120;28;20189;-92
2021/06/13 12:50:40;;;;;;;3.85;3.50;;;30.20;27.00;;;;;;5022012;28;20177;-93
2021/06/13 12:53:09;;;;;;;5.72;3.35;;;30.30;26.90;;;;;;5005331;28;20197;-92
2021/06/13 12:55:42;;;;;;;3.83;3.00;;;30.70;25.20;;;;;;5012090;28;20196;-93
2021/06/13 12:58:09;;;;;;;4.38;3.70;;;31.00;23.30;;;;;;5016113;28;20184;-92
2021/06/13 13:00:35;;;;;;;9.48;3.50;;;31.10;24.40;;;;;;5030244;28;20196;-93
2021/06/13 13:03:09;;;;;;;3.80;3.40;;;31.60;25.60;;;;;;5037878;28;20236;-93
2021/06/13 13:05:35;;;;;;;4.78;3.58;;;31.40;24.30;;;;;;5018071;28;20180;-93